createdAt,value
2022-09-07T00:01:09.609Z,0.77
2022-09-07T00:03:36.390Z,0.82
2022-09-07T00:06:08.639Z,0.73
2022-09-07T00:08:35.397Z,0.85
2022-09-07T00:11:05.148Z,0.70
2022-09-07T00:13:34.411Z,0.75
2022-09-07T00:16:06.129Z,0.70
2022-09-07T00:18:32.891Z,0.95
2022-09-07T00:21:08.503Z,0.57
2022-09-07T00:23:36.889Z,0.60
2022-09-07T00:26:05.894Z,0.52
2022-09-07T00:28:33.083Z,0.52
2022-09-07T00:30:59.869Z,0.30
2022-09-07T00:33:26.891Z,1.10
2022-09-07T00:35:53.727Z,0.20
2022-09-07T00:38:20.317Z,0.35
2022-09-07T00:40:46.996Z,0.20
2022-09-07T00:43:17.171Z,0.20
2022-09-07T00:45:43.756Z,0.20
2022-09-07T00:48:17.046Z,0.15
2022-09-07T00:50:47.535Z,0.47
2022-09-07T00:53:18.531Z,0.45
2022-09-07T00:55:46.523Z,0.57
2022-09-07T00:58:13.377Z,0.30
2022-09-07T01:00:41.204Z,0.47
2022-09-07T01:03:08.864Z,0.38
2022-09-07T01:05:42.739Z,0.20
2022-09-07T01:08:09.875Z,0.50
2022-09-07T01:10:37.632Z,0.32
2022-09-07T01:13:04.658Z,0.30
2022-09-07T01:15:56.462Z,0.50
2022-09-07T01:19:34.742Z,0.40
2022-09-07T01:22:13.124Z,0.30
2022-09-07T01:24:39.742Z,0.40
2022-09-07T01:27:26.536Z,0.60
2022-09-07T01:29:59.509Z,0.52
2022-09-07T01:33:00.000Z,0.40
2022-09-07T01:35:50.392Z,0.50
2022-09-07T01:38:38.860Z,1.20
2022-09-07T01:41:11.696Z,0.47
2022-09-07T01:43:42.740Z,0.40
2022-09-07T01:46:25.558Z,0.40
2022-09-07T01:48:55.127Z,0.40
2022-09-07T01:51:23.439Z,0.50
2022-09-07T01:54:24.521Z,0.38
2022-09-07T01:56:53.715Z,1.98
2022-09-07T01:59:24.972Z,0.60
2022-09-07T02:04:25.913Z,3.72
2022-09-07T02:07:06.370Z,6.68
2022-09-07T02:09:37.547Z,0.83
2022-09-07T02:12:27.472Z,0.60
2022-09-07T02:14:59.752Z,2.22
2022-09-07T02:17:31.803Z,1.50
2022-09-07T02:20:04.740Z,0.98
2022-09-07T02:22:34.811Z,2.97
2022-09-07T02:25:03.988Z,2.20
2022-09-07T02:27:36.260Z,0.75
2022-09-07T02:30:03.042Z,2.30
2022-09-07T02:32:29.605Z,3.35
2022-09-07T02:34:56.234Z,3.10
2022-09-07T02:37:23.212Z,5.15
2022-09-07T02:39:49.988Z,1.83
2022-09-07T02:42:16.602Z,2.70
2022-09-07T02:44:45.622Z,2.40
2022-09-07T02:47:49.779Z,2.13
2022-09-07T02:50:30.064Z,1.42
2022-09-07T02:53:41.367Z,1.05
2022-09-07T02:56:35.955Z,1.77
2022-09-07T02:59:21.232Z,1.67
2022-09-07T03:01:48.053Z,1.65
2022-09-07T03:04:33.385Z,1.33
2022-09-07T03:07:14.053Z,1.30
2022-09-07T03:09:44.195Z,1.08
2022-09-07T03:12:11.113Z,1.52
2022-09-07T03:14:40.461Z,1.40
2022-09-07T03:17:07.520Z,1.30
2022-09-07T03:19:34.113Z,1.20
2022-09-07T03:22:00.768Z,1.05
2022-09-07T03:24:27.377Z,1.08
2022-09-07T03:26:53.958Z,1.73
2022-09-07T03:29:20.552Z,1.38
2022-09-07T03:31:47.159Z,1.17
2022-09-07T03:34:13.813Z,0.60
2022-09-07T03:36:40.429Z,0.55
2022-09-07T03:39:07.138Z,0.50
2022-09-07T03:41:34.441Z,0.43
2022-09-07T03:44:05.112Z,0.60
2022-09-07T03:46:32.630Z,0.70
2022-09-07T03:48:59.434Z,0.45
2022-09-07T03:51:26.101Z,0.77
2022-09-07T03:53:52.653Z,0.60
2022-09-07T03:56:21.424Z,1.10
2022-09-07T03:58:48.679Z,0.70
2022-09-07T04:01:20.788Z,0.70
2022-09-07T04:03:48.098Z,0.75
2022-09-07T04:06:15.699Z,0.77
2022-09-07T04:08:43.248Z,1.20
2022-09-07T04:11:13.168Z,0.90
2022-09-07T04:13:40.088Z,1.30
2022-09-07T04:16:11.669Z,0.77
2022-09-07T04:18:38.325Z,0.90
2022-09-07T04:21:05.032Z,0.90
2022-09-07T04:23:31.739Z,1.05
2022-09-07T04:25:58.400Z,0.80
2022-09-07T04:28:25.262Z,1.17
2022-09-07T04:30:51.913Z,0.90
2022-09-07T04:33:18.890Z,1.17
2022-09-07T04:35:45.460Z,1.52
2022-09-07T04:38:14.891Z,1.25
2022-09-07T04:40:41.733Z,1.50
2022-09-07T04:43:09.636Z,1.27
2022-09-07T04:45:37.258Z,1.23
2022-09-07T04:48:04.449Z,1.60
2022-09-07T04:50:31.497Z,1.00
2022-09-07T04:52:58.115Z,0.95
2022-09-07T04:55:24.739Z,1.10
2022-09-07T04:57:51.341Z,0.95
2022-09-07T05:00:18.115Z,0.98
2022-09-07T05:02:44.756Z,1.15
2022-09-07T05:05:11.506Z,0.90
2022-09-07T05:07:38.093Z,0.90
2022-09-07T05:10:05.118Z,1.13
2022-09-07T05:12:31.692Z,1.27
2022-09-07T05:14:58.400Z,1.80
2022-09-07T05:17:24.979Z,1.30
2022-09-07T05:19:51.534Z,1.65
2022-09-07T05:22:19.331Z,1.48
2022-09-07T05:24:47.635Z,1.40
2022-09-07T05:27:14.320Z,1.17
2022-09-07T05:32:27.517Z,1.17
2022-09-07T05:34:54.115Z,1.60
2022-09-07T05:37:20.745Z,2.92
2022-09-07T05:39:48.254Z,2.10
2022-09-07T05:42:15.012Z,1.35
2022-09-07T05:47:13.310Z,1.67
2022-09-07T05:49:40.075Z,0.85
2022-09-07T05:52:06.909Z,0.90
2022-09-07T05:54:33.656Z,3.63
2022-09-07T05:57:00.269Z,1.50
2022-09-07T05:59:26.874Z,1.02
2022-09-07T06:01:53.532Z,1.00
2022-09-07T06:04:20.220Z,0.85
2022-09-07T06:06:59.289Z,0.82
2022-09-07T06:09:33.660Z,0.80
2022-09-07T06:12:00.272Z,0.85
2022-09-07T06:14:26.864Z,0.70
2022-09-07T06:16:53.768Z,1.20
2022-09-07T06:19:20.444Z,0.90
2022-09-07T06:21:47.014Z,0.93
2022-09-07T06:24:13.822Z,0.80
2022-09-07T06:26:40.416Z,0.70
2022-09-07T06:29:07.138Z,0.52
2022-09-07T06:31:33.927Z,0.75
2022-09-07T06:34:01.049Z,0.70
2022-09-07T06:36:28.240Z,0.70
2022-09-07T06:38:56.207Z,0.82
2022-09-07T06:44:17.307Z,0.68
2022-09-07T06:49:30.469Z,0.60
2022-09-07T06:51:57.067Z,0.80
2022-09-07T06:57:10.263Z,0.88
2022-09-07T06:59:37.582Z,0.77
2022-09-07T07:02:05.299Z,0.77
2022-09-07T07:04:33.300Z,0.50
2022-09-07T07:07:03.064Z,0.77
2022-09-07T07:09:29.641Z,0.90
2022-09-07T07:11:56.187Z,0.77
2022-09-07T07:14:22.757Z,0.63
2022-09-07T07:16:49.909Z,0.80
2022-09-07T07:19:16.728Z,0.60
2022-09-07T07:22:10.381Z,0.70
2022-09-07T07:24:30.645Z,0.75
2022-09-07T07:26:57.562Z,0.70
2022-09-07T07:29:27.982Z,0.80
2022-09-07T07:31:54.964Z,0.60
2022-09-07T07:34:21.647Z,0.60
2022-09-07T07:36:48.238Z,0.63
2022-09-07T07:42:03.200Z,0.80
2022-09-07T07:44:32.056Z,0.70
2022-09-07T07:46:58.683Z,0.77
2022-09-07T07:49:25.272Z,0.63
2022-09-07T07:54:41.583Z,0.80
2022-09-07T07:57:08.357Z,0.60
2022-09-07T07:59:35.425Z,0.65
2022-09-07T08:02:05.048Z,0.60
2022-09-07T08:04:35.242Z,0.82
2022-09-07T08:07:08.683Z,0.70
2022-09-07T08:09:37.275Z,1.02
2022-09-07T08:12:04.108Z,0.55
2022-09-07T08:14:30.654Z,0.68
2022-09-07T08:16:57.184Z,0.70
2022-09-07T08:19:23.701Z,0.73
2022-09-07T08:21:50.239Z,0.88
2022-09-07T08:24:16.798Z,0.70
2022-09-07T08:26:43.409Z,0.70
2022-09-07T08:29:09.918Z,0.65
2022-09-07T08:31:36.616Z,1.02
2022-09-07T08:34:03.231Z,0.60
2022-09-07T08:36:31.826Z,0.65
2022-09-07T08:38:58.497Z,0.60
2022-09-07T08:41:59.561Z,0.68
2022-09-07T08:44:28.761Z,0.68
2022-09-07T08:47:23.378Z,0.63
2022-09-07T08:49:56.320Z,0.50
2022-09-07T08:52:25.701Z,0.57
2022-09-07T08:55:04.802Z,0.98
2022-09-07T08:57:33.562Z,0.60
2022-09-07T09:00:07.815Z,0.80
2022-09-07T09:02:40.140Z,1.08
2022-09-07T09:05:35.015Z,1.13
2022-09-07T09:08:14.325Z,0.60
2022-09-07T09:10:53.482Z,0.60
2022-09-07T09:13:27.638Z,0.60
2022-09-07T09:16:03.266Z,0.60
2022-09-07T09:18:44.755Z,0.70
2022-09-07T09:21:17.030Z,0.70
2022-09-07T09:23:45.775Z,0.40
2022-09-07T09:26:12.335Z,0.60
2022-09-07T09:28:39.448Z,0.65
2022-09-07T09:31:06.861Z,0.60
2022-09-07T09:33:33.448Z,0.60
2022-09-07T09:36:01.125Z,0.68
2022-09-07T09:38:31.802Z,0.60
2022-09-07T09:43:33.007Z,0.40
2022-09-07T09:46:17.200Z,0.40
2022-09-07T09:48:50.505Z,0.75
2022-09-07T09:54:23.117Z,0.65
2022-09-07T09:56:50.988Z,0.60
2022-09-07T10:05:37.948Z,0.60
2022-09-07T10:08:15.636Z,0.63
2022-09-07T10:11:00.491Z,0.68
2022-09-07T10:13:54.840Z,0.80
2022-09-07T10:16:36.381Z,0.52
2022-09-07T10:19:03.007Z,0.60
2022-09-07T10:21:30.917Z,0.70
2022-09-07T10:24:06.605Z,0.50
2022-09-07T10:26:37.790Z,0.50
2022-09-07T10:29:28.691Z,0.50
2022-09-07T10:32:26.244Z,0.80
2022-09-07T10:35:38.364Z,0.68
2022-09-07T10:38:15.125Z,0.73
2022-09-07T10:40:58.926Z,0.98
2022-09-07T10:43:43.732Z,0.68
2022-09-07T10:49:06.037Z,0.57
2022-09-07T10:51:54.028Z,0.30
2022-09-07T10:54:48.592Z,0.30
2022-09-07T10:57:48.269Z,0.20
2022-09-07T11:00:17.784Z,0.35
2022-09-07T11:06:02.445Z,0.68
2022-09-07T11:14:20.386Z,0.57
2022-09-07T11:17:12.641Z,0.45
2022-09-07T11:19:45.250Z,0.60
2022-09-07T11:22:32.421Z,0.40
2022-09-07T11:27:56.343Z,0.55
2022-09-07T11:30:27.363Z,0.45
2022-09-07T11:33:05.386Z,0.50
2022-09-07T11:35:51.826Z,0.40
2022-09-07T11:38:31.134Z,0.63
2022-09-07T11:41:16.028Z,0.60
2022-09-07T11:43:53.367Z,0.40
2022-09-07T11:46:26.878Z,0.65
2022-09-07T11:48:55.994Z,0.50
2022-09-07T11:51:38.648Z,0.50
2022-09-07T11:54:35.666Z,0.60
2022-09-07T11:57:14.321Z,0.57
2022-09-07T11:59:58.750Z,0.77
2022-09-07T12:03:05.482Z,0.57
2022-09-07T12:05:43.786Z,0.60
2022-09-07T12:08:19.130Z,0.30
2022-09-07T12:11:09.601Z,0.50
2022-09-07T12:13:53.238Z,0.50
2022-09-07T12:16:28.847Z,0.50
2022-09-07T12:19:01.185Z,0.50
2022-09-07T12:21:38.105Z,0.60
2022-09-07T12:24:05.010Z,0.50
2022-09-07T12:26:35.424Z,0.50
2022-09-07T12:29:01.985Z,0.50
2022-09-07T12:31:57.649Z,0.40
2022-09-07T12:34:31.340Z,0.50
2022-09-07T12:37:26.723Z,0.50
2022-09-07T12:40:30.066Z,0.75
2022-09-07T12:43:15.044Z,0.50
2022-09-07T12:45:44.527Z,0.73
2022-09-07T12:48:32.142Z,1.00
2022-09-07T12:50:59.010Z,0.88
2022-09-07T12:53:33.128Z,0.75
2022-09-07T12:56:24.681Z,0.55
2022-09-07T12:59:19.779Z,0.65
2022-09-07T13:02:14.128Z,0.98
2022-09-07T13:05:15.500Z,0.73
2022-09-07T13:08:08.031Z,0.73
2022-09-07T13:10:37.440Z,0.75
2022-09-07T13:13:16.118Z,0.75
2022-09-07T13:15:45.865Z,0.60
2022-09-07T13:18:35.718Z,0.73
2022-09-07T13:21:08.349Z,0.60
2022-09-07T13:23:35.832Z,0.60
2022-09-07T13:26:03.461Z,1.00
2022-09-07T13:28:51.369Z,0.75
2022-09-07T13:31:26.845Z,1.02
2022-09-07T13:33:53.992Z,0.80
2022-09-07T13:36:25.755Z,1.30
2022-09-07T13:38:53.564Z,0.90
2022-09-07T13:41:27.547Z,0.95
2022-09-07T13:44:00.423Z,1.13
2022-09-07T13:46:51.152Z,1.20
2022-09-07T13:49:55.075Z,0.98
2022-09-07T13:52:51.900Z,0.90
2022-09-07T13:55:27.537Z,1.00
2022-09-07T13:57:58.559Z,1.25
2022-09-07T14:00:25.143Z,1.20
2022-09-07T14:02:56.799Z,1.15
2022-09-07T14:05:23.856Z,1.23
2022-09-07T14:07:50.383Z,1.02
2022-09-07T14:10:25.055Z,1.65
2022-09-07T14:12:54.030Z,1.42
2022-09-07T14:15:32.404Z,1.40
2022-09-07T14:18:10.998Z,1.13
2022-09-07T14:20:44.161Z,1.10
2022-09-07T14:23:27.070Z,1.15
2022-09-07T14:26:17.267Z,1.00
2022-09-07T14:28:46.058Z,1.10
2022-09-07T14:31:15.382Z,0.90
2022-09-07T14:33:58.959Z,1.10
2022-09-07T14:36:44.623Z,1.23
2022-09-07T14:39:12.992Z,0.82
2022-09-07T14:41:41.437Z,1.08
2022-09-07T14:44:36.460Z,0.93
2022-09-07T14:47:18.915Z,1.00
2022-09-07T14:49:51.958Z,0.90
2022-09-07T14:52:31.289Z,1.00
2022-09-07T14:54:57.972Z,0.90
2022-09-07T14:57:30.653Z,0.63
2022-09-07T14:59:58.866Z,0.70
2022-09-07T15:02:37.861Z,0.90
2022-09-07T15:05:25.489Z,0.75
2022-09-07T15:07:53.398Z,1.00
2022-09-07T15:10:23.713Z,1.10
2022-09-07T15:12:55.120Z,0.90
2022-09-07T15:15:27.043Z,1.17
2022-09-07T15:17:55.475Z,1.10
2022-09-07T15:20:40.247Z,1.15
2022-09-07T15:23:14.923Z,1.02
2022-09-07T15:25:45.374Z,1.17
2022-09-07T15:29:08.115Z,0.88
2022-09-07T15:34:04.484Z,1.20
2022-09-07T15:39:00.115Z,1.02
2022-09-07T15:41:27.754Z,1.05
2022-09-07T15:43:54.380Z,0.85
2022-09-07T15:46:21.179Z,0.88
2022-09-07T15:48:52.764Z,1.48
2022-09-07T15:54:08.009Z,1.15
2022-09-07T15:56:38.912Z,0.80
2022-09-07T15:59:05.833Z,1.13
2022-09-07T16:04:19.449Z,0.77
2022-09-07T16:06:48.288Z,1.02
2022-09-07T16:09:15.482Z,0.68
2022-09-07T16:11:42.065Z,0.70
2022-09-07T16:14:11.718Z,0.50
2022-09-07T16:19:24.824Z,0.60
2022-09-07T16:21:51.579Z,0.70
2022-09-07T16:24:18.343Z,0.80
2022-09-07T16:26:44.988Z,0.63
2022-09-07T16:29:11.560Z,0.60
2022-09-07T16:31:38.424Z,0.55
2022-09-07T16:34:05.510Z,0.80
2022-09-07T16:36:32.094Z,0.60
2022-09-07T16:39:00.314Z,0.65
2022-09-07T16:41:31.025Z,1.25
2022-09-07T16:43:58.323Z,0.60
2022-09-07T16:46:26.983Z,0.63
2022-09-07T16:48:53.857Z,0.70
2022-09-07T16:51:22.596Z,0.90
2022-09-07T16:53:50.885Z,0.50
2022-09-07T16:56:20.017Z,0.88
2022-09-07T16:58:52.375Z,0.93
2022-09-07T17:01:21.557Z,1.15
2022-09-07T17:03:51.775Z,0.93
2022-09-07T17:06:20.360Z,0.60
2022-09-07T17:08:47.220Z,0.98
2022-09-07T17:11:17.628Z,0.70
2022-09-07T17:13:44.655Z,0.80
2022-09-07T17:16:12.855Z,0.65
2022-09-07T17:21:34.819Z,0.95
2022-09-07T17:24:04.315Z,0.70
2022-09-07T17:26:31.945Z,0.70
2022-09-07T17:29:00.612Z,0.70
2022-09-07T17:34:19.575Z,0.80
2022-09-07T17:36:46.346Z,0.60
2022-09-07T17:39:16.026Z,0.60
2022-09-07T17:41:44.711Z,0.75
2022-09-07T17:44:11.314Z,0.68
2022-09-07T17:46:38.160Z,1.02
2022-09-07T17:49:07.043Z,0.80
2022-09-07T17:51:33.708Z,0.77
2022-09-07T17:54:12.313Z,0.82
2022-09-07T17:56:40.026Z,0.88
2022-09-07T18:01:54.367Z,0.80
2022-09-07T18:04:21.337Z,0.90
2022-09-07T18:06:48.288Z,0.70
2022-09-07T18:09:14.941Z,1.05
2022-09-07T18:11:44.844Z,0.80
2022-09-07T18:16:40.396Z,0.77
2022-09-07T18:19:09.793Z,1.00
2022-09-07T18:21:37.935Z,1.08
2022-09-07T18:24:07.578Z,0.98
2022-09-07T18:26:35.771Z,1.23
2022-09-07T18:29:04.803Z,1.00
2022-09-07T18:34:01.673Z,1.10
2022-09-07T18:36:29.087Z,1.05
2022-09-07T18:38:55.755Z,1.10
2022-09-07T18:41:22.291Z,1.08
2022-09-07T18:43:49.458Z,0.90
2022-09-07T18:46:21.134Z,1.10
2022-09-07T18:48:47.779Z,0.98
2022-09-07T18:51:15.088Z,1.23
2022-09-07T18:53:41.771Z,0.90
2022-09-07T18:56:13.186Z,1.33
2022-09-07T18:58:40.089Z,0.98
2022-09-07T19:01:08.854Z,1.30
2022-09-07T19:03:36.108Z,0.77
2022-09-07T19:06:05.333Z,1.20
2022-09-07T19:08:32.942Z,0.90
2022-09-07T19:11:07.013Z,1.10
2022-09-07T19:13:34.987Z,1.52
2022-09-07T19:16:12.685Z,1.30
2022-09-07T19:18:44.735Z,1.38
2022-09-07T19:21:16.607Z,1.38
2022-09-07T19:23:43.379Z,1.70
2022-09-07T19:26:10.579Z,1.33
2022-09-07T19:28:37.125Z,1.02
2022-09-07T19:31:05.757Z,1.20
2022-09-07T19:33:33.364Z,1.25
2022-09-07T19:36:06.568Z,1.23
2022-09-07T19:38:33.480Z,1.08
2022-09-07T19:41:01.008Z,1.58
2022-09-07T19:43:31.507Z,1.73
2022-09-07T19:45:58.184Z,1.20
2022-09-07T19:48:25.293Z,1.40
2022-09-07T19:50:51.876Z,1.30
2022-09-07T19:53:19.012Z,1.25
2022-09-07T19:55:45.885Z,1.40
2022-09-07T19:58:12.891Z,1.48
2022-09-07T20:00:41.674Z,1.20
2022-09-07T20:03:10.516Z,1.00
2022-09-07T20:05:38.612Z,1.35
2022-09-07T20:08:05.293Z,1.38
2022-09-07T20:10:32.761Z,2.15
2022-09-07T20:12:59.708Z,1.83
2022-09-07T20:15:26.537Z,1.50
2022-09-07T20:17:53.902Z,1.90
2022-09-07T20:20:21.224Z,1.73
2022-09-07T20:22:48.065Z,2.33
2022-09-07T20:25:14.650Z,1.65
2022-09-07T20:27:41.649Z,1.95
2022-09-07T20:30:08.602Z,1.48
2022-09-07T20:32:35.150Z,1.60
2022-09-07T20:35:01.771Z,1.88
2022-09-07T20:37:28.363Z,1.38
2022-09-07T20:39:55.002Z,1.55
2022-09-07T20:42:21.618Z,1.30
2022-09-07T20:44:48.141Z,1.92
2022-09-07T20:47:14.683Z,1.50
2022-09-07T20:49:41.199Z,1.70
2022-09-07T20:52:07.746Z,1.83
2022-09-07T20:54:34.272Z,1.63
2022-09-07T20:57:03.844Z,1.50
2022-09-07T20:59:30.750Z,1.80
2022-09-07T21:01:57.435Z,1.42
2022-09-07T21:04:26.366Z,1.63
2022-09-07T21:06:53.063Z,1.40
2022-09-07T21:09:20.039Z,1.55
2022-09-07T21:11:49.712Z,2.10
2022-09-07T21:14:17.830Z,2.00
2022-09-07T21:16:44.493Z,2.10
2022-09-07T21:19:11.176Z,1.88
2022-09-07T21:21:39.867Z,1.85
2022-09-07T21:24:09.292Z,1.73
2022-09-07T21:26:35.829Z,1.90
2022-09-07T21:29:04.954Z,1.48
2022-09-07T21:31:33.409Z,1.67
2022-09-07T21:34:01.838Z,1.42
2022-09-07T21:36:28.752Z,1.70
2022-09-07T21:38:55.859Z,2.17
2022-09-07T21:41:23.791Z,1.55
2022-09-07T21:43:55.385Z,1.70
2022-09-07T21:46:21.932Z,1.75
2022-09-07T21:48:48.514Z,2.40
2022-09-07T21:51:15.457Z,1.63
2022-09-07T21:53:43.115Z,1.60
2022-09-07T21:56:12.828Z,1.70
2022-09-07T21:58:40.100Z,1.77
2022-09-07T22:01:26.533Z,1.83
2022-09-07T22:03:59.655Z,1.90
2022-09-07T22:06:27.880Z,1.50
2022-09-07T22:08:55.805Z,1.73
2022-09-07T22:11:23.870Z,1.70
2022-09-07T22:13:55.547Z,1.73
2022-09-07T22:16:22.486Z,1.50
2022-09-07T22:18:49.282Z,1.65
2022-09-07T22:21:21.467Z,1.60
2022-09-07T22:23:51.010Z,1.80
2022-09-07T22:26:19.628Z,1.40
2022-09-07T22:28:46.667Z,1.65
2022-09-07T22:31:13.299Z,1.60
2022-09-07T22:33:40.947Z,2.05
2022-09-07T22:36:15.893Z,1.88
2022-09-07T22:38:43.575Z,2.10
2022-09-07T22:41:15.175Z,1.98
2022-09-07T22:43:42.676Z,2.20
2022-09-07T22:46:10.038Z,2.28
2022-09-07T22:48:36.734Z,2.30
2022-09-07T22:51:04.228Z,2.28
2022-09-07T22:53:33.467Z,2.45
2022-09-07T22:56:01.528Z,1.75
2022-09-07T22:58:29.099Z,2.13
2022-09-07T23:01:00.887Z,1.90
2022-09-07T23:03:32.085Z,2.15
2022-09-07T23:08:26.032Z,1.90
2022-09-07T23:10:53.063Z,2.30
2022-09-07T23:13:20.068Z,1.92
2022-09-07T23:15:47.230Z,2.20
2022-09-07T23:18:18.897Z,1.95
2022-09-07T23:20:45.420Z,1.60
2022-09-07T23:23:13.384Z,1.80
2022-09-07T23:25:41.314Z,1.20
2022-09-07T23:28:10.717Z,2.08
2022-09-07T23:30:37.574Z,1.90
2022-09-07T23:33:04.151Z,1.67
2022-09-07T23:35:30.705Z,1.55
2022-09-07T23:37:57.263Z,1.88
2022-09-07T23:40:24.223Z,2.25
2022-09-07T23:42:50.883Z,2.05
2022-09-07T23:45:17.463Z,1.98
2022-09-07T23:47:44.052Z,2.00
2022-09-07T23:50:11.097Z,1.70
2022-09-07T23:52:38.009Z,1.90
2022-09-07T23:55:05.334Z,1.98
2022-09-07T23:57:31.900Z,2.20
2022-09-07T23:59:58.895Z,1.65
